Time;durP1;ratioP1;P1;durP2;ratioP2;P2;SDS_P1;SDS_P2;PMS_P1;PMS_P2;Temp;Humidity;BMP_temperature;BMP_pressure;BME280_temperature;BME280_humidity;BME280_pressure;Samples;Min_cycle;Max_cycle;Signal;HPM_P1;HPM_P2
2022/06/12 00:00:32;;;;;;;2.60;1.83;;;17.10;98.00;;;;;;5050621;28;20457;-71
2022/06/12 00:03:01;;;;;;;4.83;2.00;;;17.00;98.00;;;;;;5050320;28;20501;-70
2022/06/12 00:05:32;;;;;;;4.73;2.10;;;17.00;98.00;;;;;;5050485;28;20461;-71
2022/06/12 00:08:00;;;;;;;2.47;1.93;;;17.00;98.00;;;;;;5053368;28;20651;-70
2022/06/12 00:10:28;;;;;;;2.77;2.00;;;17.10;98.00;;;;;;5054347;28;20454;-70
2022/06/12 00:12:55;;;;;;;4.03;2.07;;;17.10;98.00;;;;;;5053994;28;20458;-70
2022/06/12 00:15:25;;;;;;;3.00;2.17;;;17.20;98.00;;;;;;5053959;28;20449;-70
2022/06/12 00:17:53;;;;;;;3.30;1.90;;;17.20;98.00;;;;;;5053828;28;20469;-71
2022/06/12 00:20:23;;;;;;;2.63;2.23;;;17.30;98.00;;;;;;5053956;28;20465;-70
2022/06/12 00:22:51;;;;;;;2.50;1.93;;;17.20;98.00;;;;;;5053703;28;20515;-71
2022/06/12 00:25:21;;;;;;;3.90;2.10;;;17.20;98.00;;;;;;5052662;28;20476;-70
2022/06/12 00:27:48;;;;;;;3.10;1.93;;;17.20;98.00;;;;;;5052229;28;20462;-70
2022/06/12 00:30:18;;;;;;;2.37;1.87;;;17.00;98.00;;;;;;5052464;28;20817;-70
2022/06/12 00:32:49;;;;;;;2.57;1.70;;;16.90;98.00;;;;;;5053549;28;20453;-71
2022/06/12 00:35:17;;;;;;;3.80;2.20;;;16.90;98.00;;;;;;5053639;28;20540;-70
2022/06/12 00:37:45;;;;;;;2.70;1.80;;;16.90;98.00;;;;;;5052510;28;20987;-71
2022/06/12 00:40:14;;;;;;;2.97;2.20;;;16.80;98.00;;;;;;5053455;28;20454;-70
2022/06/12 00:42:47;;;;;;;2.00;1.90;;;16.70;98.00;;;;;;5052271;28;20848;-70
2022/06/12 00:45:47;;;;;;;2.30;2.03;;;16.70;98.00;;;;;;5053554;28;20454;-70
2022/06/12 00:48:18;;;;;;;3.17;2.03;;;16.60;98.00;;;;;;5053362;28;20872;-70
2022/06/12 00:50:50;;;;;;;3.90;2.40;;;16.50;98.00;;;;;;5053255;28;20902;-70
2022/06/12 00:53:31;;;;;;;2.30;2.00;;;16.50;98.00;;;;;;5053220;28;20461;-70
2022/06/12 00:56:04;;;;;;;2.80;2.10;;;16.60;98.00;;;;;;5053083;28;20508;-70
2022/06/12 00:58:36;;;;;;;2.80;2.10;;;16.60;98.00;;;;;;5053346;28;20457;-70
2022/06/12 01:01:05;;;;;;;2.90;1.93;;;16.40;98.00;;;;;;5053105;28;20556;-70
2022/06/12 01:06:33;;;;;;;2.33;2.00;;;16.40;98.00;;;;;;5053206;28;20486;-70
2022/06/12 01:06:33;;;;;;;4.23;1.97;;;16.30;98.00;;;;;;5053264;28;20472;-70
2022/06/12 01:09:01;;;;;;;2.77;2.17;;;16.30;98.00;;;;;;5053375;28;20461;-70
2022/06/12 01:11:29;;;;;;;3.53;2.23;;;16.30;98.00;;;;;;5053150;28;20552;-70
2022/06/12 01:13:59;;;;;;;2.57;1.83;;;16.30;98.00;;;;;;5052876;28;20465;-70
2022/06/12 01:16:27;;;;;;;2.70;2.10;;;16.50;98.00;;;;;;5052890;28;20983;-70
2022/06/12 01:18:56;;;;;;;10.90;2.40;;;16.40;98.00;;;;;;5051638;28;20453;-70
2022/06/12 01:22:06;;;;;;;2.40;2.20;;;16.30;98.00;;;;;;5052781;28;20461;-70
2022/06/12 01:25:09;;;;;;;3.03;2.20;;;16.40;98.00;;;;;;5052553;28;20458;-70
2022/06/12 01:28:12;;;;;;;2.53;2.00;;;16.30;98.00;;;;;;5035013;28;20483;-70
2022/06/12 01:30:47;;;;;;;2.50;1.93;;;16.30;98.00;;;;;;5052839;28;21067;-70
2022/06/12 01:33:22;;;;;;;2.00;1.60;;;16.30;98.00;;;;;;5052423;28;20464;-71
2022/06/12 01:35:55;;;;;;;1.80;1.57;;;16.30;98.00;;;;;;5052458;28;20453;-70
2022/06/12 01:38:31;;;;;;;10.60;2.57;;;16.30;98.00;;;;;;5052335;28;20457;-70
2022/06/12 01:41:01;;;;;;;2.63;1.73;;;16.20;98.00;;;;;;5052207;28;20461;-70
2022/06/12 01:43:38;;;;;;;3.23;2.40;;;16.00;98.00;;;;;;5052291;28;20490;-70
2022/06/12 01:46:11;;;;;;;2.20;1.90;;;16.00;98.00;;;;;;5052241;28;20460;-70
2022/06/12 01:48:45;;;;;;;2.20;1.83;;;16.00;98.00;;;;;;5052174;28;20462;-70
2022/06/12 01:51:21;;;;;;;3.23;2.03;;;16.00;98.00;;;;;;5052388;28;20465;-70
2022/06/12 01:53:58;;;;;;;2.13;1.80;;;16.20;98.00;;;;;;5052264;28;20569;-70
2022/06/12 01:56:32;;;;;;;3.97;2.20;;;16.30;98.00;;;;;;5051922;28;20461;-70
2022/06/12 01:59:06;;;;;;;2.87;1.77;;;16.10;98.00;;;;;;5052339;28;20549;-70
2022/06/12 02:01:40;;;;;;;2.40;2.00;;;15.90;98.00;;;;;;5052173;28;20446;-70
2022/06/12 02:04:16;;;;;;;12.13;1.97;;;15.90;98.00;;;;;;5051826;28;20493;-70
2022/06/12 02:06:53;;;;;;;2.67;2.20;;;15.80;98.00;;;;;;5052065;28;20453;-71
2022/06/12 02:09:26;;;;;;;2.00;1.83;;;15.80;98.00;;;;;;5052161;28;20800;-70
2022/06/12 02:14:47;;;;;;;3.47;3.00;;;15.70;98.00;;;;;;5051811;28;20440;-70
2022/06/12 02:17:23;;;;;;;1.87;1.80;;;15.60;98.00;;;;;;5051852;28;20458;-70
2022/06/12 02:19:51;;;;;;;4.63;2.20;;;15.60;98.00;;;;;;5051679;28;20950;-70
2022/06/12 02:22:24;;;;;;;2.27;1.80;;;15.60;98.00;;;;;;5051557;28;20485;-70
2022/06/12 02:24:56;;;;;;;3.10;2.00;;;15.50;98.00;;;;;;5050413;28;20462;-70
2022/06/12 02:27:29;;;;;;;3.73;1.87;;;15.40;98.00;;;;;;5051779;28;20752;-70
2022/06/12 02:30:01;;;;;;;2.60;1.83;;;15.30;98.00;;;;;;5050906;28;20454;-70
2022/06/12 02:32:35;;;;;;;2.07;1.70;;;15.30;98.00;;;;;;5051485;28;20454;-70
2022/06/12 02:35:08;;;;;;;2.07;1.67;;;15.30;98.00;;;;;;5051224;28;21086;-70
2022/06/12 02:37:40;;;;;;;3.23;1.93;;;15.40;98.00;;;;;;5051297;28;20461;-70
2022/06/12 02:40:12;;;;;;;3.70;2.23;;;15.30;98.00;;;;;;5049992;28;20549;-70
2022/06/12 02:42:45;;;;;;;3.30;2.30;;;15.20;98.00;;;;;;5051296;28;20893;-70
2022/06/12 02:45:17;;;;;;;2.23;1.60;;;15.40;98.00;;;;;;5051629;28;20469;-70
2022/06/12 02:47:48;;;;;;;3.53;2.33;;;15.40;98.00;;;;;;5051256;28;20489;-70
2022/06/12 02:50:21;;;;;;;2.60;2.00;;;15.40;98.00;;;;;;5051067;28;20928;-70
2022/06/12 02:53:00;;;;;;;2.40;1.83;;;15.20;98.00;;;;;;5049932;28;20458;-71
2022/06/12 02:55:33;;;;;;;3.00;2.00;;;15.10;98.00;;;;;;5051153;28;20460;-70
2022/06/12 02:58:10;;;;;;;7.83;2.50;;;15.10;98.00;;;;;;5050021;28;20587;-70
2022/06/12 03:00:44;;;;;;;4.17;2.00;;;15.10;98.00;;;;;;5051106;28;20453;-70
2022/06/12 03:03:24;;;;;;;2.70;1.97;;;15.10;98.00;;;;;;5051088;28;20524;-70
2022/06/12 03:05:54;;;;;;;2.70;2.20;;;15.00;98.00;;;;;;5051225;28;20458;-70
2022/06/12 03:08:25;;;;;;;2.47;1.80;;;14.90;98.00;;;;;;5051466;28;20644;-70
2022/06/12 03:10:55;;;;;;;2.10;1.83;;;14.90;98.00;;;;;;5051446;28;20469;-70
2022/06/12 03:13:26;;;;;;;4.37;2.07;;;15.00;98.00;;;;;;5051074;28;21283;-70
2022/06/12 03:15:55;;;;;;;2.83;2.13;;;15.10;98.00;;;;;;5050975;28;20457;-70
2022/06/12 03:18:27;;;;;;;2.33;1.70;;;15.00;98.00;;;;;;5049635;28;20475;-70
2022/06/12 03:21:06;;;;;;;3.30;1.83;;;15.00;98.00;;;;;;5050842;28;20452;-70
2022/06/12 03:23:53;;;;;;;2.83;1.93;;;14.90;98.00;;;;;;5049633;28;20923;-70
2022/06/12 03:26:29;;;;;;;3.00;1.80;;;14.90;98.00;;;;;;5051175;28;20457;-70
2022/06/12 03:29:04;;;;;;;2.27;2.13;;;14.80;98.00;;;;;;5049657;28;20455;-70
2022/06/12 03:31:35;;;;;;;2.23;1.90;;;14.80;98.00;;;;;;5051143;28;20813;-70
2022/06/12 03:34:07;;;;;;;3.33;2.13;;;14.80;98.00;;;;;;5050702;28;20476;-70
2022/06/12 03:36:39;;;;;;;3.10;1.90;;;14.70;98.00;;;;;;5050896;28;20457;-70
2022/06/12 03:39:12;;;;;;;1.90;1.60;;;14.80;98.00;;;;;;5050693;28;20461;-70
2022/06/12 03:41:46;;;;;;;2.50;2.13;;;14.80;98.00;;;;;;5051421;28;20468;-70
2022/06/12 03:44:23;;;;;;;3.03;2.23;;;14.70;98.00;;;;;;5054612;28;20500;-70
2022/06/12 03:46:56;;;;;;;2.33;1.80;;;14.80;98.00;;;;;;5055452;28;20467;-71
2022/06/12 03:49:30;;;;;;;3.03;1.93;;;14.80;98.00;;;;;;5055288;28;20460;-70
2022/06/12 03:52:12;;;;;;;2.20;1.90;;;14.70;98.00;;;;;;5055194;28;20465;-70
2022/06/12 03:54:47;;;;;;;3.07;2.13;;;14.70;98.00;;;;;;5054818;28;20457;-70
2022/06/12 04:00:17;;;;;;;3.07;2.00;;;14.80;98.00;;;;;;5053773;28;20444;-70
2022/06/12 04:02:52;;;;;;;3.50;2.23;;;15.00;98.00;;;;;;5054225;28;21076;-70
2022/06/12 04:05:25;;;;;;;3.10;2.30;;;15.10;98.00;;;;;;5054336;28;20461;-70
2022/06/12 04:07:56;;;;;;;2.70;2.20;;;15.00;98.00;;;;;;5054415;28;20465;-70
2022/06/12 04:10:27;;;;;;;2.50;2.00;;;15.00;98.00;;;;;;5054591;28;20456;-70
2022/06/12 04:12:55;;;;;;;2.50;1.77;;;15.00;98.00;;;;;;5054475;28;20450;-70
2022/06/12 04:15:26;;;;;;;2.83;1.90;;;15.20;98.00;;;;;;5054190;28;20456;-70
2022/06/12 04:17:55;;;;;;;2.27;1.80;;;15.30;98.00;;;;;;5053091;28;20457;-70
2022/06/12 04:20:28;;;;;;;2.90;2.03;;;15.40;98.00;;;;;;5053963;28;20932;-70
2022/06/12 04:23:01;;;;;;;2.80;2.20;;;15.40;98.00;;;;;;5054118;28;20470;-70
2022/06/12 04:25:42;;;;;;;2.23;2.03;;;15.40;98.00;;;;;;5053973;28;20486;-70
2022/06/12 04:28:29;;;;;;;4.20;2.70;;;15.40;98.00;;;;;;5036152;28;20808;-70
2022/06/12 04:30:58;;;;;;;3.33;2.00;;;15.40;98.00;;;;;;5053801;28;20828;-70
2022/06/12 04:33:50;;;;;;;2.13;1.80;;;15.30;98.00;;;;;;5053703;28;20465;-70
2022/06/12 04:36:19;;;;;;;3.47;2.20;;;15.30;98.00;;;;;;5042842;28;20464;-70
2022/06/12 04:38:46;;;;;;;3.50;2.43;;;15.50;98.00;;;;;;5053693;28;20457;-70
2022/06/12 04:41:21;;;;;;;2.73;2.00;;;15.80;98.00;;;;;;5085796;28;20462;-70
2022/06/12 04:43:48;;;;;;;2.43;2.00;;;16.00;98.00;;;;;;5053602;28;20485;-70
2022/06/12 04:46:16;;;;;;;3.40;2.23;;;16.00;98.00;;;;;;5053597;28;20454;-70
2022/06/12 04:48:45;;;;;;;2.67;2.20;;;15.90;98.00;;;;;;5053768;28;20453;-70
2022/06/12 04:51:13;;;;;;;2.37;2.13;;;15.80;98.00;;;;;;5053509;28;20515;-70
2022/06/12 04:53:46;;;;;;;4.40;1.93;;;15.70;98.00;;;;;;5053139;28;20476;-70
2022/06/12 04:56:15;;;;;;;3.40;1.90;;;15.60;98.00;;;;;;5053156;28;20816;-69
2022/06/12 04:58:44;;;;;;;4.00;2.10;;;15.70;98.00;;;;;;5051982;28;20869;-70
2022/06/12 05:01:11;;;;;;;3.57;2.30;;;15.80;98.00;;;;;;5053129;28;20461;-70
2022/06/12 05:03:39;;;;;;;3.00;2.20;;;16.10;98.00;;;;;;5053068;28;20490;-70
2022/06/12 05:06:07;;;;;;;3.40;2.40;;;16.20;98.00;;;;;;5054365;28;20468;-70
2022/06/12 05:08:35;;;;;;;2.73;1.93;;;16.40;98.00;;;;;;5054053;28;20469;-70
2022/06/12 05:11:04;;;;;;;2.23;1.93;;;16.50;98.00;;;;;;5053591;28;20469;-70
2022/06/12 05:13:32;;;;;;;2.27;2.03;;;16.60;98.00;;;;;;5053301;28;20831;-69
2022/06/12 05:16:06;;;;;;;3.33;2.33;;;16.70;98.00;;;;;;5054260;28;20473;-70
2022/06/12 05:18:34;;;;;;;2.87;1.90;;;16.80;98.00;;;;;;5054124;28;21101;-71
2022/06/12 05:21:01;;;;;;;2.30;2.03;;;16.80;98.00;;;;;;5053490;28;20791;-70
2022/06/12 05:23:29;;;;;;;3.00;2.00;;;16.90;98.00;;;;;;5052953;28;20481;-69
2022/06/12 05:25:56;;;;;;;2.70;1.90;;;16.90;98.00;;;;;;5051116;28;20472;-70
2022/06/12 05:28:24;;;;;;;5.10;2.10;;;17.00;98.00;;;;;;5051529;28;20461;-70
2022/06/12 05:30:52;;;;;;;5.00;2.80;;;16.90;98.00;;;;;;5052566;28;20449;-70
2022/06/12 05:33:19;;;;;;;2.27;1.77;;;16.80;98.00;;;;;;5052696;28;20450;-69
2022/06/12 05:35:46;;;;;;;2.93;2.37;;;16.90;98.00;;;;;;5052688;28;20449;-70
2022/06/12 05:38:13;;;;;;;6.70;2.23;;;17.10;98.00;;;;;;5052687;28;20458;-70
2022/06/12 05:40:42;;;;;;;3.43;1.90;;;17.10;98.00;;;;;;5052169;28;20462;-69
2022/06/12 05:43:09;;;;;;;3.30;2.27;;;17.30;98.00;;;;;;5052348;28;20458;-70
2022/06/12 05:45:38;;;;;;;3.10;2.30;;;17.30;98.00;;;;;;5052318;28;20454;-71
2022/06/12 05:48:09;;;;;;;3.37;1.90;;;17.40;98.00;;;;;;5052117;28;20461;-70
2022/06/12 05:50:45;;;;;;;3.30;2.03;;;17.50;98.00;;;;;;5052242;28;20453;-70
2022/06/12 05:53:12;;;;;;;3.47;2.37;;;17.60;98.00;;;;;;5052145;28;20457;-70
2022/06/12 05:55:40;;;;;;;2.67;1.93;;;17.70;98.00;;;;;;5052049;28;20473;-70
2022/06/12 05:58:07;;;;;;;3.23;2.10;;;17.70;98.00;;;;;;5050671;28;20960;-71
2022/06/12 06:00:34;;;;;;;3.73;2.40;;;17.80;98.00;;;;;;5052092;28;20458;-70
2022/06/12 06:03:03;;;;;;;2.90;2.00;;;18.10;98.00;;;;;;5051805;28;20960;-69
2022/06/12 06:05:31;;;;;;;4.50;2.53;;;18.20;98.00;;;;;;5051464;28;20944;-69
2022/06/12 06:07:58;;;;;;;3.37;1.97;;;18.30;98.00;;;;;;5051792;28;20457;-70
2022/06/12 06:10:28;;;;;;;3.67;2.40;;;18.30;98.00;;;;;;5051750;28;20458;-70
2022/06/12 06:12:55;;;;;;;4.70;3.00;;;18.40;98.00;;;;;;5052313;28;20683;-70
2022/06/12 06:15:23;;;;;;;2.97;2.10;;;18.60;98.00;;;;;;5051720;28;20454;-70
2022/06/12 06:17:52;;;;;;;2.60;2.13;;;18.70;98.00;;;;;;5050675;28;20454;-70
2022/06/12 06:20:24;;;;;;;3.63;2.40;;;18.80;98.00;;;;;;5051936;28;20454;-70
2022/06/12 06:22:52;;;;;;;2.80;2.27;;;18.80;98.00;;;;;;5051788;28;20500;-70
2022/06/12 06:25:20;;;;;;;2.40;2.03;;;18.90;98.00;;;;;;5051528;28;20878;-70
2022/06/12 06:27:48;;;;;;;4.10;2.47;;;18.90;98.00;;;;;;5051291;28;20833;-70
2022/06/12 06:30:16;;;;;;;5.03;2.70;;;18.90;98.00;;;;;;5051378;28;20549;-70
2022/06/12 06:32:44;;;;;;;2.23;2.10;;;19.00;98.00;;;;;;5051629;28;20453;-70
2022/06/12 06:35:12;;;;;;;3.47;2.43;;;19.10;98.00;;;;;;5051394;28;20461;-75
2022/06/12 06:37:41;;;;;;;3.70;2.40;;;19.30;98.00;;;;;;5051306;28;20449;-74
2022/06/12 06:40:11;;;;;;;3.30;2.50;;;19.50;98.00;;;;;;5051557;28;20503;-76
2022/06/12 06:42:38;;;;;;;2.97;2.20;;;19.50;98.00;;;;;;5051591;28;20465;-74
2022/06/12 06:47:52;;;;;;;3.80;2.60;;;19.70;98.00;;;;;;5051292;28;20433;-74
2022/06/12 06:50:21;;;;;;;3.57;2.27;;;19.90;98.00;;;;;;5051224;28;20453;-73
2022/06/12 06:52:50;;;;;;;4.80;2.60;;;20.00;98.00;;;;;;5051309;28;20454;-74
2022/06/12 06:55:18;;;;;;;3.57;2.33;;;20.10;98.00;;;;;;5051098;28;20478;-76
2022/06/12 06:57:47;;;;;;;4.63;2.73;;;20.10;98.00;;;;;;5051265;28;20465;-72
2022/06/12 07:00:18;;;;;;;5.60;3.17;;;20.20;98.00;;;;;;5051088;28;20465;-73
2022/06/12 07:02:45;;;;;;;2.73;2.33;;;20.20;98.00;;;;;;5051126;28;20461;-74
2022/06/12 07:05:13;;;;;;;2.73;2.10;;;20.40;98.00;;;;;;5050910;28;20477;-72
2022/06/12 07:07:40;;;;;;;4.40;2.67;;;20.50;98.00;;;;;;5051179;28;20457;-75
2022/06/12 07:10:14;;;;;;;3.53;2.33;;;20.60;98.00;;;;;;5049953;28;20952;-75
2022/06/12 07:12:41;;;;;;;3.20;2.47;;;20.70;98.00;;;;;;5051080;28;20465;-73
2022/06/12 07:15:10;;;;;;;6.47;2.93;;;20.80;98.00;;;;;;5050919;28;20445;-74
2022/06/12 07:17:37;;;;;;;3.93;2.73;;;20.80;98.00;;;;;;5055039;28;20468;-77
2022/06/12 07:20:05;;;;;;;3.33;2.43;;;21.00;98.00;;;;;;5055600;28;20461;-77
2022/06/12 07:22:32;;;;;;;4.03;2.53;;;21.20;98.00;;;;;;5055142;28;20485;-74
2022/06/12 07:24:59;;;;;;;2.77;2.37;;;21.30;98.00;;;;;;5055265;28;20485;-77
2022/06/12 07:27:28;;;;;;;4.77;2.50;;;21.50;98.00;;;;;;5055167;28;20816;-72
2022/06/12 07:29:55;;;;;;;3.70;2.40;;;21.60;98.00;;;;;;5054902;28;20453;-72
2022/06/12 07:32:23;;;;;;;4.57;3.10;;;21.80;98.00;;;;;;5054937;28;20453;-72
2022/06/12 07:34:50;;;;;;;6.43;2.80;;;21.80;98.00;;;;;;5055320;28;20461;-74
2022/06/12 07:37:17;;;;;;;3.67;2.27;;;21.80;98.00;;;;;;5053561;28;20453;-74
2022/06/12 07:39:45;;;;;;;4.40;2.73;;;21.80;98.00;;;;;;5041809;28;20456;-74
2022/06/12 07:42:12;;;;;;;4.63;2.67;;;22.00;98.00;;;;;;5043770;28;20558;-74
2022/06/12 07:44:41;;;;;;;4.90;2.73;;;22.00;98.00;;;;;;5034014;28;20505;-73
2022/06/12 07:47:09;;;;;;;5.23;3.10;;;22.00;98.00;;;;;;5033401;28;20458;-74
2022/06/12 07:49:37;;;;;;;3.83;2.80;;;22.10;98.00;;;;;;5034105;28;20474;-74
2022/06/12 07:52:07;;;;;;;5.23;3.10;;;22.10;98.00;;;;;;5051512;28;20477;-76
2022/06/12 07:54:37;;;;;;;3.60;2.40;;;22.20;98.00;;;;;;5042228;28;20515;-75
2022/06/12 07:57:05;;;;;;;4.90;3.20;;;22.30;98.00;;;;;;5049863;28;20519;-72
2022/06/12 07:59:32;;;;;;;6.67;3.47;;;22.50;98.00;;;;;;5043276;28;20454;-75
2022/06/12 08:02:01;;;;;;;4.10;2.90;;;22.60;98.00;;;;;;5042797;28;20804;-77
2022/06/12 08:04:29;;;;;;;6.30;3.23;;;22.70;98.00;;;;;;5034083;28;20482;-75
2022/06/12 08:06:57;;;;;;;3.23;2.40;;;22.90;98.00;;;;;;5050434;28;20456;-75
2022/06/12 08:09:24;;;;;;;5.83;3.67;;;23.20;98.00;;;;;;5041063;28;20465;-78
2022/06/12 08:11:52;;;;;;;5.00;2.63;;;23.20;98.00;;;;;;5033340;28;20454;-78
2022/06/12 08:14:21;;;;;;;3.20;2.40;;;23.30;98.00;;;;;;5041001;28;21045;-78
2022/06/12 08:16:48;;;;;;;3.47;2.40;;;23.40;98.00;;;;;;5052715;28;20464;-73
2022/06/12 08:22:05;;;;;;;4.37;2.63;;;23.60;97.90;;;;;;5054859;28;20579;-72
2022/06/12 08:24:32;;;;;;;4.70;2.63;;;23.70;98.00;;;;;;5054678;28;20492;-75
2022/06/12 08:29:46;;;;;;;3.80;3.00;;;24.00;97.80;;;;;;5053738;28;20967;-77
2022/06/12 08:32:16;;;;;;;3.40;2.50;;;24.10;96.60;;;;;;5053795;28;20672;-75
2022/06/12 08:34:52;;;;;;;6.73;2.90;;;24.10;96.70;;;;;;5053907;28;20454;-68
2022/06/12 08:37:23;;;;;;;4.27;2.70;;;24.20;95.70;;;;;;5054439;28;20453;-66
2022/06/12 08:39:50;;;;;;;4.30;2.93;;;24.30;95.30;;;;;;5054380;28;20524;-66
2022/06/12 08:42:24;;;;;;;4.70;2.50;;;24.40;94.90;;;;;;5054265;28;20466;-66
2022/06/12 08:44:54;;;;;;;3.70;2.90;;;24.70;97.20;;;;;;5054081;28;20576;-67
2022/06/12 08:47:36;;;;;;;4.00;2.27;;;24.90;93.70;;;;;;5053048;28;20465;-67
2022/06/12 08:50:12;;;;;;;5.37;3.07;;;25.10;94.90;;;;;;5053346;28;20457;-66
2022/06/12 08:52:43;;;;;;;5.50;3.00;;;25.30;94.20;;;;;;5053764;28;20453;-72
2022/06/12 08:55:19;;;;;;;3.10;2.40;;;25.40;93.20;;;;;;5053410;28;20458;-72
2022/06/12 08:57:53;;;;;;;2.97;2.20;;;25.50;92.90;;;;;;5053375;28;20802;-65
2022/06/12 09:00:22;;;;;;;3.97;2.67;;;25.70;92.50;;;;;;5053169;28;20462;-66
2022/06/12 09:02:50;;;;;;;3.57;2.43;;;25.90;92.80;;;;;;5053102;28;20457;-67
2022/06/12 09:05:21;;;;;;;5.40;3.10;;;25.90;91.80;;;;;;5051679;28;20477;-67
2022/06/12 09:07:53;;;;;;;3.73;2.80;;;26.00;91.40;;;;;;5053132;28;20454;-66
2022/06/12 09:10:42;;;;;;;3.50;2.57;;;25.80;86.80;;;;;;5053040;28;20462;-64
2022/06/12 09:13:16;;;;;;;3.40;2.40;;;25.70;87.80;;;;;;5051895;28;20544;-65
2022/06/12 09:15:51;;;;;;;3.53;2.37;;;25.80;87.90;;;;;;5052290;28;20465;-71
2022/06/12 09:18:30;;;;;;;4.57;2.67;;;25.90;87.80;;;;;;5052879;28;20456;-70
2022/06/12 09:21:05;;;;;;;4.67;2.60;;;25.90;86.30;;;;;;5052821;28;20461;-70
2022/06/12 09:23:40;;;;;;;2.50;2.27;;;26.00;88.10;;;;;;5052812;28;20461;-67
2022/06/12 09:26:20;;;;;;;3.40;2.80;;;26.20;89.60;;;;;;5052618;28;20829;-67
2022/06/12 09:28:57;;;;;;;3.50;2.77;;;26.30;88.40;;;;;;5052636;28;20966;-68
2022/06/12 09:31:29;;;;;;;3.97;2.47;;;26.40;87.80;;;;;;5052981;28;20496;-68
2022/06/12 09:34:08;;;;;;;4.03;2.23;;;26.60;87.60;;;;;;5052720;28;20454;-68
2022/06/12 09:36:51;;;;;;;3.80;2.77;;;26.80;87.60;;;;;;5052583;28;20465;-68
2022/06/12 09:39:32;;;;;;;3.50;2.33;;;26.80;84.00;;;;;;5051650;28;20469;-69
2022/06/12 09:42:10;;;;;;;3.73;2.30;;;26.80;83.50;;;;;;5052164;28;20461;-70
2022/06/12 09:44:49;;;;;;;4.83;2.27;;;26.80;83.20;;;;;;5052242;28;20477;-67
2022/06/12 09:47:28;;;;;;;4.60;2.60;;;27.10;86.50;;;;;;5051112;28;20464;-68
2022/06/12 09:50:05;;;;;;;3.73;2.40;;;27.30;82.60;;;;;;5051601;28;20967;-75
2022/06/12 09:52:56;;;;;;;2.50;2.07;;;27.30;82.80;;;;;;5046382;28;20477;-73
2022/06/12 09:55:31;;;;;;;2.63;2.13;;;27.60;81.90;;;;;;5030986;28;20463;-76
2022/06/12 09:58:08;;;;;;;2.70;2.00;;;27.70;81.00;;;;;;5038687;28;20458;-74
2022/06/12 10:00:41;;;;;;;2.87;2.30;;;27.80;79.10;;;;;;5040047;28;20460;-73
2022/06/12 10:03:13;;;;;;;3.63;2.60;;;27.90;79.40;;;;;;5039387;28;20501;-74
2022/06/12 10:05:48;;;;;;;7.00;2.30;;;28.00;81.50;;;;;;5048379;28;20501;-73
2022/06/12 10:08:21;;;;;;;4.17;2.47;;;28.20;83.50;;;;;;5039143;28;20454;-76
2022/06/12 10:10:55;;;;;;;3.77;2.77;;;28.30;80.90;;;;;;5046353;28;20458;-75
2022/06/12 10:13:29;;;;;;;4.47;2.50;;;28.50;81.70;;;;;;5032627;28;20458;-74
2022/06/12 10:16:02;;;;;;;2.93;2.47;;;28.40;80.50;;;;;;5045367;28;20456;-76
2022/06/12 10:18:35;;;;;;;3.20;2.43;;;28.50;82.30;;;;;;5044755;28;20509;-73
2022/06/12 10:21:07;;;;;;;3.40;2.50;;;28.70;81.50;;;;;;5029530;28;20463;-73
2022/06/12 10:23:36;;;;;;;3.10;2.23;;;28.80;81.10;;;;;;5035835;28;20533;-75
2022/06/12 10:26:16;;;;;;;3.43;2.50;;;29.00;81.20;;;;;;5047775;28;21064;-75
2022/06/12 10:28:44;;;;;;;3.30;2.60;;;29.20;77.50;;;;;;5042651;28;20461;-75
2022/06/12 10:31:47;;;;;;;3.60;2.27;;;29.20;79.30;;;;;;5037447;28;20480;-75
2022/06/12 10:34:19;;;;;;;5.63;2.63;;;29.20;79.50;;;;;;5038697;28;20497;-72
2022/06/12 10:36:46;;;;;;;4.23;2.87;;;29.30;79.20;;;;;;5037915;28;20458;-67
2022/06/12 10:39:20;;;;;;;3.33;2.60;;;29.10;76.80;;;;;;5040247;28;20461;-71
2022/06/12 10:41:51;;;;;;;3.65;2.40;;;29.10;76.90;;;;;;5035415;28;20504;-63
2022/06/12 10:44:43;;;;;;;3.50;2.67;;;29.10;76.10;;;;;;5032957;28;20685;-70
2022/06/12 10:47:24;;;;;;;3.67;2.40;;;29.10;78.20;;;;;;5032563;28;20458;-73
2022/06/12 10:50:15;;;;;;;3.70;2.60;;;29.20;77.20;;;;;;5038936;28;20455;-71
2022/06/12 10:52:55;;;;;;;3.97;2.50;;;29.30;77.90;;;;;;5023858;28;20458;-66
2022/06/12 10:55:44;;;;;;;3.30;2.60;;;29.50;76.80;;;;;;5038728;28;20505;-64
2022/06/12 10:58:44;;;;;;;3.30;2.30;;;29.70;77.40;;;;;;5027153;28;20481;-65
2022/06/12 11:01:20;;;;;;;3.77;2.40;;;29.90;77.20;;;;;;5029349;28;20485;-65
2022/06/12 11:04:02;;;;;;;3.00;2.70;;;29.90;75.00;;;;;;5028838;28;20466;-65
2022/06/12 11:06:37;;;;;;;3.20;2.33;;;30.00;79.10;;;;;;5039947;28;20498;-65
2022/06/12 11:09:14;;;;;;;2.77;2.40;;;30.20;74.70;;;;;;5029730;28;20504;-65
2022/06/12 11:12:02;;;;;;;4.10;2.90;;;30.10;74.70;;;;;;5036434;28;20473;-65
2022/06/12 11:14:39;;;;;;;3.83;2.43;;;30.30;73.70;;;;;;5039728;28;20457;-65
2022/06/12 11:17:19;;;;;;;3.20;2.57;;;30.40;73.50;;;;;;5030519;28;20484;-65
2022/06/12 11:20:04;;;;;;;4.07;2.83;;;30.40;73.80;;;;;;5039527;28;20453;-65
2022/06/12 11:22:43;;;;;;;4.20;2.60;;;30.60;73.60;;;;;;5023759;28;20481;-66
2022/06/12 11:25:27;;;;;;;2.73;2.30;;;30.70;72.60;;;;;;5039629;28;20518;-65
2022/06/12 11:28:15;;;;;;;4.87;2.53;;;30.90;72.80;;;;;;5035676;28;20464;-66
2022/06/12 11:30:53;;;;;;;3.13;2.43;;;30.90;73.60;;;;;;5040442;28;20545;-66
2022/06/12 11:33:35;;;;;;;4.27;2.63;;;30.80;73.00;;;;;;5030372;28;20458;-65
2022/06/12 11:36:13;;;;;;;3.20;2.53;;;30.70;72.00;;;;;;5024440;28;20848;-65
2022/06/12 11:38:59;;;;;;;2.80;2.40;;;30.50;72.30;;;;;;5042470;28;20463;-66
2022/06/12 11:41:41;;;;;;;4.83;2.80;;;30.50;73.10;;;;;;5046848;28;20496;-65
2022/06/12 11:44:22;;;;;;;2.87;2.40;;;30.70;75.50;;;;;;5032719;28;20553;-65
2022/06/12 11:46:59;;;;;;;3.50;2.30;;;30.90;72.10;;;;;;5029204;28;20498;-65
2022/06/12 11:49:43;;;;;;;3.10;2.47;;;31.10;77.10;;;;;;5019533;28;20458;-69
2022/06/12 11:52:28;;;;;;;3.37;2.60;;;31.30;73.40;;;;;;5036108;28;20465;-69
2022/06/12 11:55:10;;;;;;;3.20;2.40;;;31.50;72.20;;;;;;5037562;28;20457;-69
2022/06/12 11:57:50;;;;;;;2.97;2.30;;;31.60;72.20;;;;;;5039885;28;20468;-71
2022/06/12 12:00:24;;;;;;;2.97;2.43;;;31.60;69.30;;;;;;5029965;28;20829;-73
2022/06/12 12:03:05;;;;;;;3.40;2.43;;;31.70;69.60;;;;;;5051128;28;20458;-78
2022/06/12 12:05:45;;;;;;;3.60;2.40;;;31.80;70.90;;;;;;5051721;28;20496;-73
2022/06/12 12:08:38;;;;;;;4.20;2.70;;;31.90;70.10;;;;;;5034706;28;20979;-77
2022/06/12 12:11:09;;;;;;;3.40;2.30;;;32.00;70.90;;;;;;5034860;28;21012;-75
2022/06/12 12:13:42;;;;;;;2.80;2.23;;;32.00;70.80;;;;;;5036857;28;20541;-76
2022/06/12 12:16:27;;;;;;;2.57;2.10;;;31.90;69.20;;;;;;5053395;28;20453;-74
2022/06/12 12:18:58;;;;;;;3.77;2.30;;;32.10;72.00;;;;;;5054713;28;20924;-76
2022/06/12 12:21:32;;;;;;;3.70;2.60;;;32.20;68.40;;;;;;5054798;28;20457;-76
2022/06/12 12:24:03;;;;;;;3.93;2.37;;;32.20;69.80;;;;;;5054447;28;20454;-77
2022/06/12 12:26:33;;;;;;;3.57;2.30;;;32.40;71.50;;;;;;5054632;28;20517;-74
2022/06/12 12:29:05;;;;;;;3.13;2.50;;;32.40;68.20;;;;;;5054633;28;20998;-75
2022/06/12 12:31:34;;;;;;;2.57;2.17;;;32.40;69.10;;;;;;5054559;28;20452;-77
2022/06/12 12:34:05;;;;;;;3.37;2.53;;;32.60;72.10;;;;;;5054435;28;20450;-76
2022/06/12 12:42:25;;;;;;;3.97;2.90;;;32.70;71.70;;;;;;5054184;28;20452;-73
2022/06/12 12:44:52;;;;;;;3.30;2.27;;;32.60;67.80;;;;;;5053949;28;20462;-74
2022/06/12 12:47:23;;;;;;;3.37;2.53;;;32.90;67.30;;;;;;5053919;28;20512;-76
2022/06/12 12:50:02;;;;;;;2.90;2.47;;;32.90;66.90;;;;;;5053987;28;20458;-77
2022/06/12 12:52:41;;;;;;;2.90;2.30;;;33.00;68.00;;;;;;5054223;28;20809;-76
2022/06/12 12:55:29;;;;;;;2.90;2.50;;;33.00;69.10;;;;;;5053900;28;20790;-76
2022/06/12 12:57:58;;;;;;;3.70;2.50;;;33.10;68.10;;;;;;5054095;28;20461;-76
2022/06/12 13:00:33;;;;;;;4.00;2.63;;;33.40;67.10;;;;;;5053761;28;20450;-74
2022/06/12 13:03:09;;;;;;;3.57;2.40;;;33.50;70.10;;;;;;5053735;28;20504;-75
2022/06/12 13:06:12;;;;;;;3.53;2.63;;;33.70;66.80;;;;;;5053780;28;20523;-77
2022/06/12 13:08:58;;;;;;;2.73;2.33;;;33.80;64.60;;;;;;5054136;28;20848;-76
2022/06/12 13:11:44;;;;;;;2.80;2.33;;;33.90;67.80;;;;;;5051079;28;20458;-75
2022/06/12 13:14:27;;;;;;;3.70;2.60;;;33.40;66.70;;;;;;5040488;28;20826;-77
2022/06/12 13:17:11;;;;;;;4.10;2.70;;;33.00;67.90;;;;;;5037073;28;20490;-75
2022/06/12 13:20:03;;;;;;;3.33;2.40;;;32.80;71.30;;;;;;5033896;28;20465;-75
2022/06/12 13:22:42;;;;;;;3.97;2.40;;;32.40;67.40;;;;;;5031929;28;20513;-75
2022/06/12 13:25:14;;;;;;;3.40;2.90;;;32.00;69.60;;;;;;5033430;28;20550;-74
2022/06/12 13:27:53;;;;;;;3.53;2.70;;;31.90;72.00;;;;;;5033814;28;20455;-77
2022/06/12 13:30:23;;;;;;;3.47;2.50;;;31.70;72.30;;;;;;5033392;28;20458;-75
2022/06/12 13:32:50;;;;;;;3.60;2.60;;;31.70;70.80;;;;;;5033496;28;20465;-75
2022/06/12 13:35:29;;;;;;;3.30;2.30;;;31.80;72.30;;;;;;5033334;28;20497;-77
2022/06/12 13:38:02;;;;;;;2.90;2.40;;;31.70;69.80;;;;;;5033294;28;20949;-76